Time;durP1;ratioP1;P1;durP2;ratioP2;P2;SDS_P1;SDS_P2;PMS_P1;PMS_P2;Temp;Humidity;BMP_temperature;BMP_pressure;BME280_temperature;BME280_humidity;BME280_pressure;Samples;Min_cycle;Max_cycle;Signal;HPM_P1;HPM_P2
2024/03/05 00:02:18;;;;;;;4.43;2.05;;;8.40;72.30;;;;;;5033193;28;20381;-66
2024/03/05 00:04:46;;;;;;;3.45;1.63;;;8.40;72.40;;;;;;5033645;28;20030;-67
2024/03/05 00:07:11;;;;;;;3.65;2.22;;;8.40;72.40;;;;;;5030390;28;20032;-66
2024/03/05 00:09:37;;;;;;;3.03;1.95;;;8.40;72.50;;;;;;5030833;28;20140;-66
2024/03/05 00:12:04;;;;;;;5.78;2.50;;;8.30;72.50;;;;;;5032482;28;20057;-67
2024/03/05 00:14:31;;;;;;;4.57;2.47;;;8.30;72.50;;;;;;5032785;28;20032;-67
2024/03/05 00:16:57;;;;;;;5.45;2.17;;;8.30;72.50;;;;;;5031606;28;20026;-67
2024/03/05 00:19:24;;;;;;;5.47;2.38;;;8.30;72.60;;;;;;5029832;28;20032;-61
2024/03/05 00:21:50;;;;;;;3.45;2.00;;;8.30;72.70;;;;;;5031022;28;20022;-67
2024/03/05 00:24:16;;;;;;;2.05;1.80;;;8.20;72.70;;;;;;5035599;28;20026;-67
2024/03/05 00:26:42;;;;;;;3.65;1.85;;;8.20;72.70;;;;;;5031705;28;20075;-67
2024/03/05 00:29:08;;;;;;;3.67;2.13;;;8.20;72.70;;;;;;5031528;28;20368;-61
2024/03/05 00:31:34;;;;;;;4.18;2.00;;;8.20;72.70;;;;;;5031267;28;20515;-61
2024/03/05 00:34:00;;;;;;;1.98;1.48;;;8.20;72.70;;;;;;5030757;28;20038;-61
2024/03/05 00:36:27;;;;;;;4.57;2.20;;;8.20;72.70;;;;;;5038245;28;20041;-67
2024/03/05 00:38:54;;;;;;;5.25;3.25;;;8.20;72.70;;;;;;5032134;28;20100;-67
2024/03/05 00:41:22;;;;;;;4.97;2.22;;;8.20;72.80;;;;;;5030745;28;20116;-61
2024/03/05 00:43:48;;;;;;;4.15;2.42;;;8.20;72.90;;;;;;5030048;28;20033;-62
2024/03/05 00:46:16;;;;;;;4.93;2.78;;;8.20;73.10;;;;;;5029485;28;20116;-61
2024/03/05 00:48:42;;;;;;;4.60;2.50;;;8.20;73.20;;;;;;5030274;28;20033;-62
2024/03/05 00:51:08;;;;;;;5.65;2.55;;;8.30;73.20;;;;;;5028488;28;20034;-61
2024/03/05 00:53:35;;;;;;;4.38;2.28;;;8.30;73.30;;;;;;5034182;28;20029;-66
2024/03/05 00:56:01;;;;;;;5.40;2.88;;;8.30;73.40;;;;;;5032874;28;20037;-61
2024/03/05 00:58:28;;;;;;;5.32;2.55;;;8.40;73.50;;;;;;5029809;28;20035;-61
2024/03/05 01:00:54;;;;;;;4.97;2.78;;;8.40;73.50;;;;;;5033372;28;20029;-61
2024/03/05 01:03:20;;;;;;;5.57;2.78;;;8.50;73.70;;;;;;5029541;28;20121;-61
2024/03/05 01:05:47;;;;;;;4.60;2.20;;;8.50;73.80;;;;;;5030799;28;20084;-61
2024/03/05 01:08:13;;;;;;;5.25;2.70;;;8.50;73.80;;;;;;5032965;28;20044;-61
2024/03/05 01:10:48;;;;;;;3.53;2.28;;;8.60;73.90;;;;;;5114345;27;20322;-60
2024/03/05 01:13:14;;;;;;;7.68;3.42;;;8.60;74.00;;;;;;5102561;28;20115;-60
2024/03/05 01:15:41;;;;;;;5.53;2.35;;;8.60;74.10;;;;;;5099686;28;20020;-60
2024/03/05 01:18:07;;;;;;;6.50;2.75;;;8.70;74.10;;;;;;5105852;28;20077;-60
2024/03/05 01:20:33;;;;;;;3.85;2.45;;;8.70;74.20;;;;;;5105792;28;20024;-60
2024/03/05 01:22:59;;;;;;;3.25;2.15;;;8.70;74.30;;;;;;5104594;28;20959;-60
2024/03/05 01:25:25;;;;;;;3.33;2.55;;;8.80;74.30;;;;;;5100305;28;20028;-60
2024/03/05 01:27:50;;;;;;;3.78;2.30;;;8.80;74.30;;;;;;5105679;28;20122;-60
2024/03/05 01:30:17;;;;;;;5.85;2.42;;;8.90;74.40;;;;;;5105935;28;20539;-60
2024/03/05 01:32:47;;;;;;;3.17;2.17;;;8.90;74.50;;;;;;5105407;28;20032;-60
2024/03/05 01:35:13;;;;;;;3.70;2.13;;;8.90;74.50;;;;;;5105692;28;20020;-60
2024/03/05 01:37:42;;;;;;;4.60;3.17;;;8.90;74.60;;;;;;5101294;28;20070;-59
2024/03/05 01:40:09;;;;;;;5.78;2.97;;;8.90;74.70;;;;;;5103673;28;20532;-60
2024/03/05 01:42:35;;;;;;;9.57;3.33;;;9.00;74.90;;;;;;5094877;28;20036;-60
2024/03/05 01:45:01;;;;;;;3.70;2.05;;;9.00;74.90;;;;;;5104657;28;20498;-60
2024/03/05 01:47:27;;;;;;;4.88;2.90;;;9.00;75.40;;;;;;5104163;28;20055;-60
2024/03/05 01:49:56;;;;;;;8.60;2.47;;;9.10;74.90;;;;;;5104488;28;20078;-60
2024/03/05 01:52:23;;;;;;;6.55;2.88;;;9.10;74.90;;;;;;5093180;28;20063;-60
2024/03/05 01:54:55;;;;;;;5.78;2.97;;;9.10;74.90;;;;;;5103920;28;20020;-60
2024/03/05 01:57:22;;;;;;;6.15;3.53;;;9.10;74.90;;;;;;5104329;28;20081;-60
2024/03/05 01:59:48;;;;;;;4.93;3.25;;;9.10;74.90;;;;;;5101161;28;20491;-60
2024/03/05 02:02:14;;;;;;;5.05;2.80;;;9.10;75.00;;;;;;5091788;28;20081;-60
2024/03/05 02:04:42;;;;;;;4.70;2.92;;;9.10;75.00;;;;;;5104667;28;20085;-60
2024/03/05 02:07:12;;;;;;;5.22;2.70;;;9.10;75.10;;;;;;5104451;28;20579;-60
2024/03/05 02:09:38;;;;;;;6.72;3.67;;;9.20;75.20;;;;;;5105020;28;20056;-61
2024/03/05 02:12:05;;;;;;;6.28;3.42;;;9.20;75.30;;;;;;5100726;28;20108;-60
2024/03/05 02:14:31;;;;;;;6.00;2.88;;;9.20;75.40;;;;;;5101763;28;20373;-60
2024/03/05 02:16:59;;;;;;;4.45;3.08;;;9.30;75.50;;;;;;5089510;28;20042;-60
2024/03/05 02:19:26;;;;;;;7.43;3.53;;;9.30;75.50;;;;;;5097669;28;20021;-66
2024/03/05 02:22:02;;;;;;;8.25;3.65;;;9.40;75.50;;;;;;5089040;28;20036;-66
2024/03/05 02:24:29;;;;;;;8.60;3.63;;;9.40;75.70;;;;;;5084070;28;20024;-66
2024/03/05 02:26:55;;;;;;;10.60;4.22;;;9.50;75.80;;;;;;5088224;28;20059;-66
2024/03/05 02:29:24;;;;;;;9.80;3.97;;;9.50;75.90;;;;;;5076324;28;20021;-66
2024/03/05 02:31:51;;;;;;;8.55;4.20;;;9.50;76.00;;;;;;5079991;28;20028;-61
2024/03/05 02:34:17;;;;;;;7.35;3.72;;;9.50;76.60;;;;;;5088549;28;20044;-60
2024/03/05 02:36:44;;;;;;;6.68;3.63;;;9.50;76.10;;;;;;5080703;28;20562;-66
2024/03/05 02:39:10;;;;;;;7.40;3.58;;;9.60;76.20;;;;;;5093884;28;20131;-66
2024/03/05 02:41:36;;;;;;;5.35;3.55;;;9.60;76.20;;;;;;5091926;28;20119;-66
2024/03/05 02:44:03;;;;;;;4.90;2.88;;;9.60;76.20;;;;;;5091060;28;20028;-60
2024/03/05 02:46:30;;;;;;;8.52;3.92;;;9.60;76.30;;;;;;5089661;28;20440;-60
2024/03/05 02:48:55;;;;;;;9.02;3.65;;;9.60;76.30;;;;;;5088354;28;20430;-60
2024/03/05 02:51:21;;;;;;;8.90;3.40;;;9.60;76.30;;;;;;5086306;28;20021;-60
2024/03/05 02:53:47;;;;;;;6.38;3.15;;;9.70;76.40;;;;;;5080092;28;20067;-59
2024/03/05 02:56:13;;;;;;;5.35;3.83;;;9.60;76.30;;;;;;5079810;28;20115;-60
2024/03/05 02:58:39;;;;;;;9.23;4.72;;;9.70;76.40;;;;;;5080411;28;20036;-60
2024/03/05 03:01:08;;;;;;;7.93;4.13;;;9.70;76.50;;;;;;5083173;28;20021;-66
2024/03/05 03:03:35;;;;;;;8.32;3.75;;;9.70;76.60;;;;;;5093426;28;20032;-66
2024/03/05 03:06:02;;;;;;;6.72;2.92;;;9.60;76.60;;;;;;5079546;28;20020;-60
2024/03/05 03:08:28;;;;;;;6.07;3.13;;;9.60;76.60;;;;;;5086317;28;20088;-60
2024/03/05 03:10:57;;;;;;;6.07;4.15;;;9.60;76.70;;;;;;5090584;28;20028;-60
2024/03/05 03:13:23;;;;;;;10.57;4.28;;;9.70;76.70;;;;;;5086554;28;20055;-60
2024/03/05 03:15:50;;;;;;;7.80;3.35;;;9.60;76.60;;;;;;5079088;28;20028;-60
2024/03/05 03:18:16;;;;;;;6.97;3.25;;;9.70;76.80;;;;;;5075797;28;20040;-60
2024/03/05 03:20:42;;;;;;;8.45;3.95;;;9.60;76.70;;;;;;5077482;28;20035;-60
2024/03/05 03:23:08;;;;;;;6.00;3.20;;;9.60;76.80;;;;;;5085930;28;20495;-60
2024/03/05 03:25:34;;;;;;;6.18;3.97;;;9.70;76.90;;;;;;5066425;28;20028;-60
2024/03/05 03:28:00;;;;;;;7.60;3.75;;;9.70;76.80;;;;;;5081981;28;20032;-60
2024/03/05 03:30:27;;;;;;;7.72;3.85;;;9.70;76.80;;;;;;5079894;28;20024;-60
2024/03/05 03:32:53;;;;;;;6.85;3.85;;;9.60;76.80;;;;;;5083970;28;20062;-60
2024/03/05 03:35:20;;;;;;;7.18;3.70;;;9.60;76.90;;;;;;5089531;28;20077;-60
2024/03/05 03:37:47;;;;;;;7.47;3.30;;;9.60;76.90;;;;;;5085552;28;20028;-60
2024/03/05 03:40:21;;;;;;;6.05;3.38;;;9.60;77.00;;;;;;5080150;28;20024;-60
2024/03/05 03:42:49;;;;;;;6.20;3.65;;;9.60;77.00;;;;;;5086177;28;20366;-60
2024/03/05 03:45:16;;;;;;;8.48;4.10;;;9.60;77.10;;;;;;5082645;28;20045;-60
2024/03/05 03:47:43;;;;;;;10.73;4.57;;;9.60;77.10;;;;;;5086893;28;20035;-60
2024/03/05 03:50:10;;;;;;;8.20;3.90;;;9.60;77.20;;;;;;5073839;28;20062;-59
2024/03/05 03:52:38;;;;;;;6.45;3.33;;;9.50;77.10;;;;;;5087228;28;20032;-60
2024/03/05 03:55:05;;;;;;;8.25;3.92;;;9.60;77.20;;;;;;5088429;28;20073;-66
2024/03/05 03:57:32;;;;;;;8.75;3.40;;;9.60;77.30;;;;;;5083054;28;20020;-66
2024/03/05 04:00:00;;;;;;;10.10;3.92;;;9.60;77.30;;;;;;5083304;28;20028;-66
2024/03/05 04:02:26;;;;;;;6.88;3.60;;;9.60;77.30;;;;;;5088721;28;20024;-66
2024/03/05 04:04:52;;;;;;;7.82;3.65;;;9.60;77.40;;;;;;5086666;28;20032;-60
2024/03/05 04:07:18;;;;;;;7.70;3.75;;;9.50;77.40;;;;;;5090400;28;20462;-66
2024/03/05 04:09:45;;;;;;;9.95;4.35;;;9.60;77.50;;;;;;5088293;28;20463;-66
2024/03/05 04:12:14;;;;;;;7.10;4.07;;;9.60;77.50;;;;;;5091057;28;20016;-66
2024/03/05 04:14:40;;;;;;;8.73;4.00;;;9.60;77.50;;;;;;5083362;28;20111;-66
2024/03/05 04:17:06;;;;;;;8.35;4.25;;;9.50;77.50;;;;;;5087698;28;20054;-60
2024/03/05 04:19:33;;;;;;;8.20;4.78;;;9.60;77.60;;;;;;5086150;28;20070;-61
2024/03/05 04:21:59;;;;;;;10.60;3.95;;;9.50;78.20;;;;;;5087931;28;20070;-67
2024/03/05 04:24:25;;;;;;;9.95;4.68;;;9.50;77.60;;;;;;5083061;28;20032;-60
2024/03/05 04:26:53;;;;;;;8.55;3.50;;;9.50;77.60;;;;;;5083668;28;20078;-61
2024/03/05 04:29:20;;;;;;;7.03;3.65;;;9.50;77.60;;;;;;5088771;28;20039;-61
2024/03/05 04:32:04;;;;;;;9.77;4.63;;;9.50;77.60;;;;;;5084880;28;20036;-61
2024/03/05 04:34:31;;;;;;;17.73;5.15;;;9.50;77.70;;;;;;5083472;28;20031;-60
2024/03/05 04:36:57;;;;;;;11.18;5.22;;;9.50;77.80;;;;;;5084336;28;20096;-60
2024/03/05 04:39:23;;;;;;;11.27;4.55;;;9.60;77.80;;;;;;5075974;28;20029;-60
2024/03/05 04:41:49;;;;;;;13.80;5.50;;;9.60;77.90;;;;;;5085825;28;20036;-66
2024/03/05 04:44:15;;;;;;;10.75;4.82;;;9.60;77.90;;;;;;5083008;28;20028;-66
2024/03/05 04:46:41;;;;;;;13.32;5.10;;;9.60;77.90;;;;;;5089869;28;20114;-66
2024/03/05 04:49:07;;;;;;;8.75;4.07;;;9.60;78.00;;;;;;5089064;28;20494;-66
2024/03/05 04:51:33;;;;;;;8.57;5.45;;;9.70;78.20;;;;;;5090191;28;20476;-66
2024/03/05 04:53:59;;;;;;;13.13;6.00;;;9.70;78.20;;;;;;5085175;28;20052;-66
2024/03/05 04:56:25;;;;;;;8.55;4.75;;;9.70;78.20;;;;;;5084906;28;20031;-66
2024/03/05 04:58:51;;;;;;;14.10;6.13;;;9.70;78.30;;;;;;5088337;28;20539;-66
2024/03/05 05:01:17;;;;;;;12.73;5.70;;;9.70;78.40;;;;;;5076191;28;20033;-66
2024/03/05 05:03:43;;;;;;;14.90;6.65;;;9.70;78.40;;;;;;5085972;28;20042;-66
2024/03/05 05:06:10;;;;;;;15.65;6.30;;;9.70;78.50;;;;;;5081657;28;20390;-66
2024/03/05 05:08:36;;;;;;;15.88;5.07;;;9.70;78.60;;;;;;5083984;28;20486;-66
2024/03/05 05:11:03;;;;;;;14.48;6.45;;;9.80;78.70;;;;;;5082357;28;20017;-66
2024/03/05 05:13:28;;;;;;;9.80;5.70;;;9.70;78.70;;;;;;5083884;28;20021;-66
2024/03/05 05:15:56;;;;;;;9.35;5.18;;;9.70;78.70;;;;;;5080461;28;20024;-66
2024/03/05 05:18:22;;;;;;;10.65;6.38;;;9.70;78.80;;;;;;5081921;28;20487;-61
2024/03/05 05:20:48;;;;;;;8.65;4.85;;;9.80;78.90;;;;;;5088179;28;20043;-60
2024/03/05 05:23:13;;;;;;;10.90;6.15;;;9.80;78.90;;;;;;5083514;28;20036;-60
2024/03/05 05:25:39;;;;;;;13.02;6.38;;;9.80;78.90;;;;;;5086261;28;20038;-60
2024/03/05 05:28:05;;;;;;;11.32;5.50;;;9.80;79.00;;;;;;5082263;28;20028;-66
2024/03/05 05:30:31;;;;;;;14.57;6.60;;;9.80;79.10;;;;;;5088293;28;20020;-66
2024/03/05 05:32:58;;;;;;;13.82;5.68;;;9.80;79.10;;;;;;5087816;28;20332;-66
2024/03/05 05:35:24;;;;;;;13.77;6.32;;;9.80;79.20;;;;;;5087168;28;20020;-66
2024/03/05 05:37:50;;;;;;;16.88;5.20;;;9.80;79.20;;;;;;5087536;28;20576;-66
2024/03/05 05:40:19;;;;;;;10.95;5.00;;;9.80;79.20;;;;;;5083502;28;20033;-66
2024/03/05 05:42:49;;;;;;;9.70;4.53;;;9.80;79.20;;;;;;5091463;28;20092;-66
2024/03/05 05:45:16;;;;;;;8.48;5.07;;;9.80;79.20;;;;;;5083139;28;20032;-66
2024/03/05 05:47:51;;;;;;;11.43;5.50;;;9.80;79.20;;;;;;5089911;28;20070;-66
2024/03/05 05:50:18;;;;;;;9.18;5.32;;;9.80;79.20;;;;;;5097886;28;20027;-66
2024/03/05 05:52:46;;;;;;;12.27;5.18;;;9.80;79.20;;;;;;5099148;28;20035;-66
2024/03/05 05:55:15;;;;;;;10.80;5.70;;;9.80;79.20;;;;;;5080222;28;20021;-66
2024/03/05 05:57:46;;;;;;;12.13;6.18;;;9.80;79.20;;;;;;5089503;28;20020;-66
2024/03/05 06:00:22;;;;;;;12.00;5.10;;;9.80;79.20;;;;;;5094385;28;20111;-66
2024/03/05 06:02:53;;;;;;;9.32;4.72;;;9.80;79.20;;;;;;5075651;28;20068;-66
2024/03/05 06:05:23;;;;;;;12.52;5.68;;;9.80;79.30;;;;;;5088468;28;20059;-67
2024/03/05 06:07:49;;;;;;;12.93;6.40;;;9.80;79.30;;;;;;5086134;28;20127;-66
2024/03/05 06:10:17;;;;;;;13.55;4.95;;;9.80;79.40;;;;;;5088827;28;20177;-66
2024/03/05 06:12:44;;;;;;;11.43;5.18;;;9.80;79.40;;;;;;5093061;28;20039;-66
2024/03/05 06:15:09;;;;;;;11.50;6.25;;;9.80;79.50;;;;;;5091039;28;20051;-66
2024/03/05 06:17:35;;;;;;;15.75;6.80;;;9.80;79.60;;;;;;5080730;28;20109;-66
2024/03/05 06:20:01;;;;;;;14.60;7.28;;;9.70;79.60;;;;;;5092590;28;20035;-66
2024/03/05 06:22:28;;;;;;;18.85;7.82;;;9.70;79.70;;;;;;5096122;28;20032;-66
2024/03/05 06:24:54;;;;;;;15.65;6.95;;;9.80;79.80;;;;;;5089377;28;20110;-67
2024/03/05 06:27:19;;;;;;;14.27;7.05;;;9.80;79.90;;;;;;5092909;28;20485;-66
2024/03/05 06:29:45;;;;;;;25.08;7.25;;;9.80;79.90;;;;;;5086056;28;20127;-67
2024/03/05 06:32:11;;;;;;;11.50;6.47;;;9.80;79.80;;;;;;5084567;28;20031;-67
2024/03/05 06:34:37;;;;;;;14.98;6.72;;;9.80;79.80;;;;;;5087881;28;20038;-66
2024/03/05 06:37:03;;;;;;;14.48;6.10;;;9.80;79.80;;;;;;5088070;28;20031;-66
2024/03/05 06:39:35;;;;;;;18.73;6.93;;;9.80;80.40;;;;;;5078207;28;20066;-66
2024/03/05 06:42:01;;;;;;;11.02;5.65;;;9.90;79.90;;;;;;5090180;28;20127;-66
2024/03/05 06:44:35;;;;;;;16.52;6.15;;;9.90;79.90;;;;;;5086111;28;20069;-66
2024/03/05 06:47:03;;;;;;;15.48;6.65;;;9.90;79.90;;;;;;5092461;28;20032;-66
2024/03/05 06:49:37;;;;;;;16.63;8.13;;;9.90;79.90;;;;;;5089343;28;20031;-67
2024/03/05 06:57:32;;;;;;;10.60;6.72;;;9.90;80.10;;;;;;5091225;28;20150;-67
2024/03/05 06:59:58;;;;;;;16.92;6.53;;;9.90;80.10;;;;;;5091655;28;20502;-67
2024/03/05 07:02:27;;;;;;;17.15;6.78;;;9.90;80.20;;;;;;5088058;28;20024;-67
2024/03/05 07:04:53;;;;;;;14.55;6.80;;;9.90;80.20;;;;;;5083886;28;20039;-67
2024/03/05 07:07:19;;;;;;;16.17;6.88;;;9.90;80.20;;;;;;5082745;28;20399;-67
2024/03/05 07:09:45;;;;;;;17.45;6.75;;;9.90;80.20;;;;;;5078174;28;20048;-66
2024/03/05 07:12:12;;;;;;;16.27;7.65;;;9.90;80.30;;;;;;5075765;28;20032;-66
2024/03/05 07:14:38;;;;;;;14.68;5.07;;;9.90;80.30;;;;;;5085561;28;20054;-67
2024/03/05 07:17:06;;;;;;;14.25;6.35;;;10.00;80.40;;;;;;5092997;28;20027;-67
2024/03/05 07:19:32;;;;;;;13.60;5.57;;;10.00;80.30;;;;;;5087025;28;20028;-67
2024/03/05 07:21:58;;;;;;;19.10;6.68;;;10.00;80.40;;;;;;5091840;28;20028;-67
2024/03/05 07:24:23;;;;;;;13.68;6.50;;;10.10;80.30;;;;;;5083790;28;20553;-66
2024/03/05 07:26:49;;;;;;;13.70;6.90;;;10.10;80.30;;;;;;5092131;28;20028;-66
2024/03/05 07:29:14;;;;;;;18.17;7.78;;;10.10;80.30;;;;;;5091807;28;20487;-67
2024/03/05 07:31:41;;;;;;;17.40;7.55;;;10.10;80.30;;;;;;5100376;28;20027;-67
2024/03/05 07:34:07;;;;;;;13.35;5.60;;;10.10;80.30;;;;;;5090824;28;20032;-67
2024/03/05 07:36:33;;;;;;;14.32;6.60;;;10.20;80.40;;;;;;5088792;28;20023;-67
2024/03/05 07:38:59;;;;;;;12.23;6.72;;;10.20;80.40;;;;;;5086750;28;20032;-67
2024/03/05 07:41:24;;;;;;;19.38;7.65;;;10.20;80.40;;;;;;5089479;28;20111;-67
2024/03/05 07:43:50;;;;;;;15.32;6.05;;;10.20;80.40;;;;;;5091911;28;20040;-67
2024/03/05 07:46:18;;;;;;;16.52;7.38;;;10.30;80.40;;;;;;5082363;28;20035;-67
2024/03/05 07:48:43;;;;;;;20.40;8.30;;;10.30;80.30;;;;;;5083210;28;20479;-67
2024/03/05 07:51:09;;;;;;;13.23;6.38;;;10.30;80.40;;;;;;5084867;28;20119;-67
2024/03/05 07:53:35;;;;;;;13.95;6.85;;;10.40;80.30;;;;;;5090581;28;20028;-67
2024/03/05 07:56:03;;;;;;;13.25;6.63;;;10.30;80.30;;;;;;5087839;28;20162;-67
2024/03/05 07:58:30;;;;;;;13.13;6.28;;;10.40;80.30;;;;;;5079124;28;20035;-67
2024/03/05 08:00:58;;;;;;;13.77;7.38;;;10.40;80.30;;;;;;5089397;28;20122;-67
2024/03/05 08:03:23;;;;;;;17.20;6.63;;;10.50;80.40;;;;;;5077898;28;20021;-67
2024/03/05 08:05:50;;;;;;;14.63;6.93;;;10.50;80.30;;;;;;5088732;28;20570;-67
2024/03/05 08:08:16;;;;;;;16.70;6.32;;;10.50;80.20;;;;;;5084845;28;20518;-66
2024/03/05 08:10:42;;;;;;;11.55;6.28;;;10.50;80.30;;;;;;5093747;28;20044;-67
2024/03/05 08:13:07;;;;;;;17.15;6.70;;;10.60;80.30;;;;;;5084494;28;20036;-67
2024/03/05 08:15:33;;;;;;;13.05;6.22;;;10.60;80.30;;;;;;5091627;28;20024;-67
2024/03/05 08:17:59;;;;;;;14.88;7.35;;;10.60;80.20;;;;;;5086053;28;20028;-69
2024/03/05 08:20:26;;;;;;;15.18;7.22;;;10.70;80.20;;;;;;5056397;28;20028;-67
2024/03/05 08:22:52;;;;;;;15.18;7.53;;;10.70;80.20;;;;;;5074382;28;20035;-66
2024/03/05 08:25:19;;;;;;;13.43;7.93;;;10.70;80.20;;;;;;5085948;28;20020;-67
2024/03/05 08:27:47;;;;;;;13.07;6.50;;;10.80;80.30;;;;;;5078220;28;20047;-67
2024/03/05 08:30:23;;;;;;;14.05;7.13;;;10.80;80.20;;;;;;5080057;28;20390;-67
2024/03/05 08:32:52;;;;;;;21.40;8.82;;;10.90;80.20;;;;;;5082700;28;20066;-66
2024/03/05 08:35:19;;;;;;;13.50;6.57;;;10.90;80.20;;;;;;5078841;28;20397;-67
2024/03/05 08:37:46;;;;;;;16.45;8.38;;;10.90;80.20;;;;;;5084517;28;20020;-67
2024/03/05 08:40:13;;;;;;;13.55;6.70;;;10.90;80.10;;;;;;5079718;28;20479;-68
2024/03/05 08:42:50;;;;;;;16.77;8.30;;;11.00;80.20;;;;;;5074792;28;20428;-68
2024/03/05 08:45:19;;;;;;;18.42;8.00;;;11.00;80.20;;;;;;5084947;28;20086;-68
2024/03/05 08:47:50;;;;;;;15.35;6.68;;;11.00;80.10;;;;;;5080525;28;20096;-72
2024/03/05 08:50:16;;;;;;;15.82;8.63;;;11.00;80.00;;;;;;5083742;28;20244;-67
2024/03/05 08:52:42;;;;;;;14.82;7.45;;;11.10;80.10;;;;;;5082548;28;20028;-66
2024/03/05 08:55:08;;;;;;;22.08;8.68;;;11.00;80.10;;;;;;5079003;28;20403;-67
2024/03/05 08:57:38;;;;;;;21.05;8.70;;;11.10;80.20;;;;;;5076623;28;20028;-62
2024/03/05 09:00:05;;;;;;;14.75;7.88;;;11.10;80.20;;;;;;5070741;28;20036;-61
2024/03/05 09:02:31;;;;;;;16.58;7.43;;;11.00;80.10;;;;;;5075241;28;20028;-62
2024/03/05 09:04:56;;;;;;;16.10;7.93;;;11.10;80.20;;;;;;5076642;28;20035;-62
2024/03/05 09:07:22;;;;;;;19.13;7.72;;;11.10;80.20;;;;;;5070463;28;20092;-61
2024/03/05 09:09:48;;;;;;;19.73;8.55;;;11.00;80.10;;;;;;5077921;28;20048;-61
2024/03/05 09:12:14;;;;;;;16.17;7.30;;;11.00;80.20;;;;;;5074348;28;20028;-61
2024/03/05 09:14:44;;;;;;;17.17;8.77;;;11.10;80.20;;;;;;5072121;28;20043;-61
2024/03/05 09:17:10;;;;;;;14.77;7.35;;;11.10;80.20;;;;;;5075335;28;20054;-61
2024/03/05 09:19:36;;;;;;;22.33;9.20;;;11.10;80.20;;;;;;5080387;28;20028;-62
2024/03/05 09:22:04;;;;;;;18.27;9.20;;;11.10;80.10;;;;;;5084894;28;20493;-62
2024/03/05 09:24:35;;;;;;;15.70;6.90;;;11.20;80.10;;;;;;5082346;28;20035;-67
2024/03/05 09:27:05;;;;;;;17.50;8.68;;;11.20;80.00;;;;;;5085595;28;20032;-67
2024/03/05 09:29:31;;;;;;;19.85;8.25;;;11.20;79.90;;;;;;5075288;28;20024;-67
2024/03/05 09:31:57;;;;;;;23.02;9.48;;;11.30;80.00;;;;;;5074893;28;20027;-67
2024/03/05 09:34:22;;;;;;;17.02;7.85;;;11.30;80.00;;;;;;5090407;28;20024;-67
2024/03/05 09:36:49;;;;;;;28.40;10.95;;;11.30;79.90;;;;;;5079884;28;20024;-68
2024/03/05 09:39:20;;;;;;;24.70;9.57;;;11.30;80.00;;;;;;5092796;28;20028;-67
2024/03/05 09:41:46;;;;;;;20.67;9.85;;;11.20;79.90;;;;;;5080429;28;20150;-67
2024/03/05 09:44:13;;;;;;;27.27;10.27;;;11.20;80.00;;;;;;5091383;28;20032;-67
2024/03/05 09:46:43;;;;;;;18.38;7.30;;;11.30;80.10;;;;;;5085813;28;20036;-67
2024/03/05 09:49:12;;;;;;;20.73;9.52;;;11.30;80.00;;;;;;5087124;28;20059;-67
2024/03/05 09:51:42;;;;;;;20.65;9.23;;;11.30;79.90;;;;;;5085195;28;20028;-67
2024/03/05 09:54:12;;;;;;;22.40;10.60;;;11.40;79.80;;;;;;5081340;28;20032;-68
2024/03/05 09:56:44;;;;;;;27.75;9.75;;;11.40;79.70;;;;;;5084804;28;20041;-67
2024/03/05 09:59:12;;;;;;;28.30;10.98;;;11.40;79.80;;;;;;5083237;28;20030;-67
2024/03/05 10:01:41;;;;;;;21.42;10.18;;;11.30;79.80;;;;;;5085468;28;20048;-67
2024/03/05 10:04:12;;;;;;;22.25;10.07;;;11.40;79.90;;;;;;5087686;28;20069;-62
2024/03/05 10:06:38;;;;;;;26.08;10.48;;;11.40;79.80;;;;;;5087831;28;20040;-67
2024/03/05 10:09:08;;;;;;;21.35;9.68;;;11.50;79.70;;;;;;5081989;28;20495;-62
2024/03/05 10:11:34;;;;;;;20.20;9.13;;;11.60;79.60;;;;;;5080102;28;20027;-62
2024/03/05 10:14:10;;;;;;;19.95;9.00;;;11.70;79.40;;;;;;5083484;28;20021;-62
2024/03/05 10:16:37;;;;;;;20.75;8.85;;;11.80;79.30;;;;;;5075051;28;20046;-62
2024/03/05 10:19:14;;;;;;;21.25;9.25;;;11.80;79.30;;;;;;5086655;28;20038;-62
2024/03/05 10:21:40;;;;;;;22.10;9.82;;;11.80;79.10;;;;;;5086740;28;20036;-62
2024/03/05 10:24:06;;;;;;;25.40;10.88;;;11.80;79.10;;;;;;5082091;28;20024;-62
2024/03/05 10:26:32;;;;;;;18.20;9.10;;;11.80;79.00;;;;;;5082542;28;20377;-62
2024/03/05 10:29:04;;;;;;;12.85;7.68;;;11.90;78.90;;;;;;5084373;28;20036;-62
2024/03/05 10:31:30;;;;;;;17.60;8.65;;;11.90;78.70;;;;;;5087375;28;20020;-62
2024/03/05 10:33:56;;;;;;;16.30;7.50;;;11.90;78.60;;;;;;5091161;28;20392;-67
2024/03/05 10:36:30;;;;;;;17.48;7.63;;;11.90;78.40;;;;;;5090007;28;20039;-68
2024/03/05 10:38:56;;;;;;;16.10;7.85;;;11.90;78.20;;;;;;5084590;28;20024;-62
2024/03/05 10:41:34;;;;;;;18.10;8.10;;;11.90;78.20;;;;;;5089108;28;20058;-61
2024/03/05 10:44:00;;;;;;;20.67;8.25;;;11.90;78.00;;;;;;5085188;28;20489;-67
2024/03/05 10:46:29;;;;;;;22.23;8.65;;;11.90;77.80;;;;;;5089435;28;20031;-68
2024/03/05 10:49:00;;;;;;;17.45;8.85;;;11.90;77.60;;;;;;5087743;28;20028;-67
2024/03/05 10:51:29;;;;;;;25.33;9.48;;;11.90;77.30;;;;;;5082825;28;20093;-68
2024/03/05 10:54:01;;;;;;;21.08;7.78;;;11.90;77.50;;;;;;5081067;28;20434;-67
2024/03/05 10:56:28;;;;;;;17.85;7.60;;;11.90;77.40;;;;;;5079561;28;20021;-67
2024/03/05 11:01:26;;;;;;;14.93;6.85;;;11.80;77.40;;;;;;5087115;28;20032;-67
2024/03/05 11:03:55;;;;;;;17.35;7.70;;;11.80;77.40;;;;;;5077708;28;20052;-61
2024/03/05 11:06:20;;;;;;;22.08;8.90;;;11.80;77.30;;;;;;5085879;28;20475;-62
2024/03/05 11:08:48;;;;;;;14.80;5.95;;;11.80;77.40;;;;;;5083400;28;20038;-62
2024/03/05 11:11:21;;;;;;;11.82;6.32;;;11.80;77.30;;;;;;5073267;28;20105;-61
2024/03/05 11:13:48;;;;;;;;;;;11.80;77.10;;;;;;5083615;28;20028;-62
2024/03/05 11:16:14;;;;;;;22.17;7.28;;;11.80;76.80;;;;;;5072981;28;19916;-62
2024/03/05 11:18:40;;;;;;;15.23;7.85;;;11.60;76.60;;;;;;5084516;28;20046;-62
2024/03/05 11:21:14;;;;;;;16.40;7.65;;;11.60;76.70;;;;;;5084714;28;20487;-62
2024/03/05 11:23:52;;;;;;;16.60;9.25;;;11.60;76.80;;;;;;5084122;28;20032;-61
2024/03/05 11:26:32;;;;;;;15.30;7.38;;;11.60;76.60;;;;;;5085022;28;20032;-62
2024/03/05 11:29:25;;;;;;;15.30;6.70;;;11.50;76.50;;;;;;5083717;28;20059;-67
2024/03/05 11:31:53;;;;;;;11.45;5.22;;;11.60;76.60;;;;;;5081469;28;20111;-67
2024/03/05 11:34:19;;;;;;;12.27;5.60;;;11.60;76.40;;;;;;5090515;28;20032;-67
2024/03/05 11:37:04;;;;;;;11.75;4.78;;;11.70;76.40;;;;;;5086850;28;20031;-67
2024/03/05 11:39:30;;;;;;;15.00;6.05;;;11.70;75.90;;;;;;5087292;28;20032;-67
2024/03/05 11:41:59;;;;;;;10.30;5.28;;;11.70;75.70;;;;;;5073349;28;20032;-67
2024/03/05 11:44:31;;;;;;;13.95;6.05;;;11.70;75.70;;;;;;5082592;28;20129;-67
2024/03/05 11:46:57;;;;;;;9.65;4.72;;;11.70;75.70;;;;;;5084415;28;20032;-67
2024/03/05 11:49:23;;;;;;;15.93;6.10;;;11.70;75.60;;;;;;5085640;28;20054;-67
2024/03/05 11:51:49;;;;;;;13.60;6.95;;;11.70;75.20;;;;;;5078334;28;20329;-61
2024/03/05 11:54:17;;;;;;;17.58;5.97;;;11.60;75.30;;;;;;5079121;28;20035;-67
2024/03/05 11:56:59;;;;;;;12.88;6.22;;;11.60;75.30;;;;;;5079605;28;20035;-67
2024/03/05 11:59:38;;;;;;;10.57;5.93;;;11.60;75.40;;;;;;5089273;28;20020;-67
2024/03/05 12:02:11;;;;;;;11.40;5.53;;;11.50;75.00;;;;;;5082338;28;20043;-61
2024/03/05 12:04:37;;;;;;;;;;;11.40;75.20;;;;;;5081320;28;20146;-61
2024/03/05 12:07:06;;;;;;;9.73;4.22;;;11.40;75.40;;;;;;5082628;28;19999;-61
2024/03/05 12:09:37;;;;;;;8.02;4.50;;;11.30;75.60;;;;;;5088079;28;20070;-61
2024/03/05 12:12:10;;;;;;;10.55;3.67;;;11.30;75.70;;;;;;5080464;28;20095;-61
2024/03/05 12:14:53;;;;;;;12.55;5.55;;;11.30;75.80;;;;;;5083737;28;20032;-61
2024/03/05 12:17:19;;;;;;;7.72;4.32;;;11.20;75.80;;;;;;5087739;28;20123;-61
2024/03/05 12:19:54;;;;;;;10.13;4.57;;;11.20;75.90;;;;;;5079247;28;20099;-66
2024/03/05 12:22:20;;;;;;;10.68;5.25;;;11.20;76.00;;;;;;5078797;28;20021;-67
2024/03/05 12:24:46;;;;;;;11.77;4.45;;;11.20;76.20;;;;;;5084975;28;20031;-66
2024/03/05 12:27:13;;;;;;;8.88;3.92;;;11.20;76.20;;;;;;5088670;28;20028;-66
2024/03/05 12:29:40;;;;;;;7.45;4.68;;;11.20;76.30;;;;;;5087646;28;20032;-66
2024/03/05 12:32:13;;;;;;;9.02;4.45;;;11.30;76.30;;;;;;5090311;28;20008;-67
2024/03/05 12:34:42;;;;;;;6.38;4.32;;;11.30;76.30;;;;;;5078171;28;20506;-66
2024/03/05 12:37:10;;;;;;;11.98;4.38;;;11.20;76.40;;;;;;5073485;28;20149;-67
2024/03/05 12:39:37;;;;;;;12.32;5.38;;;11.30;76.50;;;;;;5075420;28;20426;-67
2024/03/05 12:42:08;;;;;;;10.65;4.13;;;11.30;76.40;;;;;;5082533;28;20103;-67
2024/03/05 12:44:34;;;;;;;7.22;3.80;;;11.30;76.50;;;;;;5080031;28;20035;-67
2024/03/05 12:47:05;;;;;;;5.70;3.33;;;11.30;76.60;;;;;;5077325;28;20494;-67
2024/03/05 12:49:32;;;;;;;7.93;4.00;;;11.30;76.60;;;;;;5081200;28;20032;-67
2024/03/05 12:52:05;;;;;;;6.22;2.83;;;11.40;76.70;;;;;;5079272;28;20470;-67
2024/03/05 12:54:31;;;;;;;4.85;3.28;;;11.40;76.70;;;;;;5086282;28;20080;-67
2024/03/05 12:56:57;;;;;;;4.53;2.67;;;11.40;76.80;;;;;;5088035;28;20032;-67
2024/03/05 12:59:23;;;;;;;6.93;3.42;;;11.40;76.80;;;;;;5085881;28;20036;-67